Terminal Aerodrome Forecast
Issued by NWS Springfield, MO

Home | Current Version | Previous Version | Text Only | Print | Product List | Glossary On
Versions: 1 2 3 4 5 6 7 8 9 10 11 12 13 14 15 16 17 18 19 20 21
000
FTUS43 KSGF 271500 AAA
TAFSGF
TAF AMD
KSGF 271515Z 2715/2812 33009KT 6SM -RASN BR SCT015 OVC060
      TEMPO 2715/2719 3SM -RASN OVC015
     FM272000 34009KT 6SM -RASN BR SCT015 OVC060
      TEMPO 2720/2723 3SM -SHSN OVC025
     FM272300 34009KT P6SM OVC020
     FM280600 36006KT P6SM FEW150 BKN250=

USA.gov is the U.S. government's official web portal to all federal, state and local government web resources and services.